Time;durP1;ratioP1;P1;durP2;ratioP2;P2;SDS_P1;SDS_P2;PMS_P1;PMS_P2;Temp;Humidity;BMP_temperature;BMP_pressure;BME280_temperature;BME280_humidity;BME280_pressure;Samples;Min_cycle;Max_cycle;Signal;HPM_P1;HPM_P2
2021/03/17 00:00:55;;;;;;;8.63;5.93;;;6.30;99.90;;;;;;5053122;28;20230;-49
2021/03/17 00:03:22;;;;;;;9.57;6.20;;;6.30;99.90;;;;;;5054313;28;20748;-49
2021/03/17 00:05:49;;;;;;;9.40;6.30;;;6.30;99.90;;;;;;5053342;28;20225;-49
2021/03/17 00:08:17;;;;;;;9.63;6.07;;;6.40;99.90;;;;;;5056272;28;20230;-49
2021/03/17 00:10:47;;;;;;;6.93;5.17;;;6.30;99.90;;;;;;5057330;28;22214;-49
2021/03/17 00:13:14;;;;;;;8.00;5.53;;;6.40;99.90;;;;;;5058352;28;20213;-49
2021/03/17 00:15:43;;;;;;;7.27;5.83;;;6.40;99.90;;;;;;5039509;28;20602;-49
2021/03/17 00:18:12;;;;;;;7.23;4.90;;;6.60;99.90;;;;;;5057876;28;20670;-49
2021/03/17 00:20:39;;;;;;;8.07;5.13;;;6.40;99.90;;;;;;5057126;28;20296;-49
2021/03/17 00:23:06;;;;;;;7.07;4.70;;;6.70;99.90;;;;;;5056933;28;20206;-49
2021/03/17 00:25:38;;;;;;;7.43;5.10;;;6.60;99.90;;;;;;5057676;28;20277;-50
2021/03/17 00:28:10;;;;;;;7.87;4.73;;;6.60;99.90;;;;;;5056776;28;20210;-50
2021/03/17 00:30:38;;;;;;;6.47;5.17;;;6.60;99.90;;;;;;5054413;28;20658;-49
2021/03/17 00:33:08;;;;;;;6.10;4.40;;;6.60;99.90;;;;;;5054907;28;21040;-49
2021/03/17 00:35:35;;;;;;;5.73;4.07;;;6.40;99.90;;;;;;5058853;28;20198;-50
2021/03/17 00:38:02;;;;;;;5.80;3.50;;;6.30;99.90;;;;;;5060412;28;20214;-47
2021/03/17 00:40:28;;;;;;;4.60;3.77;;;6.40;99.90;;;;;;5053701;28;20214;-49
2021/03/17 00:42:54;;;;;;;5.03;3.87;;;6.30;99.90;;;;;;5059937;28;20649;-49
2021/03/17 00:45:21;;;;;;;4.87;3.47;;;6.20;99.90;;;;;;5057419;28;20538;-49
2021/03/17 00:47:47;;;;;;;3.80;3.30;;;6.20;99.90;;;;;;5057115;28;20581;-49
2021/03/17 00:50:16;;;;;;;4.40;3.13;;;6.40;99.90;;;;;;5053245;28;20213;-49
2021/03/17 00:52:43;;;;;;;4.43;3.10;;;6.50;99.90;;;;;;5057270;28;20225;-49
2021/03/17 00:55:12;;;;;;;3.77;3.07;;;6.30;99.90;;;;;;5054952;28;20290;-48
2021/03/17 00:57:39;;;;;;;3.97;3.20;;;6.40;99.90;;;;;;5058134;28;20245;-50
2021/03/17 01:00:08;;;;;;;5.03;3.60;;;6.60;99.90;;;;;;5054739;28;20230;-49
2021/03/17 01:02:35;;;;;;;4.17;3.10;;;6.60;99.90;;;;;;5056222;28;20226;-50
2021/03/17 01:05:03;;;;;;;4.30;3.40;;;6.70;99.90;;;;;;5056067;28;20202;-49
2021/03/17 01:07:29;;;;;;;4.60;3.33;;;6.70;99.90;;;;;;5057209;28;20640;-50
2021/03/17 01:09:55;;;;;;;3.97;2.70;;;6.80;99.90;;;;;;5055417;28;20192;-49
2021/03/17 01:12:22;;;;;;;4.57;3.57;;;6.60;99.90;;;;;;5053934;28;20283;-49
2021/03/17 01:14:48;;;;;;;3.47;2.97;;;6.70;99.90;;;;;;5058031;28;20206;-48
2021/03/17 01:17:14;;;;;;;4.27;3.20;;;6.60;99.90;;;;;;5055526;28;20543;-49
2021/03/17 01:19:41;;;;;;;3.33;3.03;;;6.60;99.90;;;;;;5053476;28;20815;-48
2021/03/17 01:22:08;;;;;;;3.40;2.73;;;6.60;99.90;;;;;;5036592;28;20674;-50
2021/03/17 01:24:35;;;;;;;3.87;3.07;;;6.40;99.90;;;;;;5037924;28;20202;-48
2021/03/17 01:27:02;;;;;;;3.67;3.10;;;6.60;99.90;;;;;;5055465;28;20293;-48
2021/03/17 01:29:28;;;;;;;3.10;2.50;;;6.60;99.90;;;;;;5054009;28;20212;-47
2021/03/17 01:31:54;;;;;;;4.30;2.87;;;6.60;99.90;;;;;;5056070;28;20209;-48
2021/03/17 01:34:21;;;;;;;3.07;2.63;;;6.60;99.90;;;;;;5054651;28;20598;-51
2021/03/17 01:36:47;;;;;;;3.83;3.13;;;6.60;99.90;;;;;;5035486;28;20638;-49
2021/03/17 01:39:14;;;;;;;4.30;2.80;;;6.60;99.90;;;;;;5054244;28;20215;-50
2021/03/17 01:41:40;;;;;;;5.60;3.77;;;6.50;99.90;;;;;;5056035;28;20259;-49
2021/03/17 01:44:06;;;;;;;3.97;3.10;;;6.30;99.90;;;;;;5055213;28;20247;-49
2021/03/17 01:46:33;;;;;;;4.27;3.20;;;6.40;99.90;;;;;;5041409;28;20251;-49
2021/03/17 01:48:59;;;;;;;4.57;3.63;;;6.50;99.90;;;;;;5038690;28;20722;-49
2021/03/17 01:51:27;;;;;;;4.57;3.70;;;6.60;99.90;;;;;;5054697;28;20815;-49
2021/03/17 01:53:54;;;;;;;5.30;3.67;;;6.60;99.90;;;;;;5055353;28;20264;-49
2021/03/17 01:56:21;;;;;;;5.87;4.00;;;6.50;99.90;;;;;;5056376;28;20266;-49
2021/03/17 01:58:48;;;;;;;6.63;3.97;;;6.50;99.90;;;;;;5057518;28;20611;-49
2021/03/17 02:01:14;;;;;;;4.70;4.00;;;6.50;99.90;;;;;;5057602;28;20236;-48
2021/03/17 02:03:41;;;;;;;4.63;3.53;;;6.50;99.90;;;;;;5052781;28;20207;-48
2021/03/17 02:06:09;;;;;;;5.10;3.67;;;6.50;99.90;;;;;;5054004;28;20218;-49
2021/03/17 02:08:39;;;;;;;6.57;4.17;;;6.40;99.90;;;;;;5052438;28;20253;-49
2021/03/17 02:11:06;;;;;;;5.73;4.30;;;6.40;99.90;;;;;;5053513;28;20296;-49
2021/03/17 02:14:07;;;;;;;4.27;3.27;;;6.50;99.90;;;;;;5054552;28;20250;-49
2021/03/17 02:16:39;;;;;;;5.10;3.37;;;6.30;99.90;;;;;;5054245;28;20211;-48
2021/03/17 02:19:05;;;;;;;4.67;2.97;;;6.30;99.90;;;;;;5049967;28;20215;-49
2021/03/17 02:22:09;;;;;;;4.57;3.67;;;6.30;99.90;;;;;;5053768;28;20196;-49
2021/03/17 02:24:57;;;;;;;4.77;3.63;;;6.40;99.90;;;;;;5053399;28;20612;-49
2021/03/17 02:27:45;;;;;;;4.70;3.67;;;6.40;99.90;;;;;;5055222;28;20277;-48
2021/03/17 02:30:39;;;;;;;4.07;3.10;;;6.30;99.90;;;;;;5054463;28;20654;-49
2021/03/17 02:33:34;;;;;;;5.17;3.57;;;6.30;99.90;;;;;;5052604;28;20233;-49
2021/03/17 02:36:35;;;;;;;5.47;4.40;;;6.40;99.90;;;;;;5053941;28;20315;-49
2021/03/17 02:39:04;;;;;;;6.97;4.30;;;6.50;99.90;;;;;;5049870;28;20258;-48
2021/03/17 02:41:37;;;;;;;6.20;4.20;;;6.50;99.90;;;;;;5053027;28;20204;-49
2021/03/17 02:44:09;;;;;;;4.97;3.93;;;6.50;99.90;;;;;;5055136;28;20829;-48
2021/03/17 02:46:39;;;;;;;6.97;4.60;;;6.40;99.90;;;;;;5054535;28;20268;-47
2021/03/17 02:49:09;;;;;;;6.93;4.20;;;6.40;99.90;;;;;;5036691;28;20254;-48
2021/03/17 02:51:46;;;;;;;6.87;4.80;;;6.50;99.90;;;;;;5053935;28;20278;-50
2021/03/17 02:54:18;;;;;;;4.77;3.97;;;6.50;99.90;;;;;;5053635;28;20202;-48
2021/03/17 02:56:53;;;;;;;5.07;4.20;;;6.30;99.90;;;;;;5054846;28;20650;-49
2021/03/17 02:59:22;;;;;;;5.87;4.37;;;6.40;99.90;;;;;;5054221;28;20215;-50
2021/03/17 03:01:53;;;;;;;4.83;3.77;;;6.40;99.90;;;;;;5054135;28;20269;-49
2021/03/17 03:04:23;;;;;;;6.83;4.00;;;6.50;99.90;;;;;;5051168;28;20264;-48
2021/03/17 03:06:51;;;;;;;5.07;4.23;;;6.50;99.90;;;;;;5053417;28;20199;-48
2021/03/17 03:09:20;;;;;;;4.87;3.80;;;6.50;99.90;;;;;;5051456;28;20203;-49
2021/03/17 03:11:48;;;;;;;4.30;3.67;;;6.40;99.90;;;;;;5051719;28;20215;-50
2021/03/17 03:14:15;;;;;;;4.83;4.30;;;6.70;99.90;;;;;;5052984;28;20206;-49
2021/03/17 03:16:42;;;;;;;4.80;3.43;;;6.50;99.90;;;;;;5052090;28;20301;-49
2021/03/17 03:19:10;;;;;;;5.87;4.23;;;6.60;99.90;;;;;;5032417;28;20231;-50
2021/03/17 03:21:37;;;;;;;6.23;4.57;;;6.50;99.90;;;;;;5054709;28;20202;-48
2021/03/17 03:24:04;;;;;;;6.13;4.67;;;6.40;99.90;;;;;;5039054;28;20200;-50
2021/03/17 03:26:33;;;;;;;6.63;4.93;;;6.40;99.90;;;;;;5052845;28;20191;-48
2021/03/17 03:29:02;;;;;;;5.27;4.53;;;6.40;99.90;;;;;;5054028;28;20203;-49
2021/03/17 03:31:28;;;;;;;6.37;5.20;;;6.40;99.90;;;;;;5051847;28;20256;-49
2021/03/17 03:33:55;;;;;;;7.20;5.67;;;6.40;99.90;;;;;;5035188;28;20202;-50
2021/03/17 03:36:24;;;;;;;6.53;5.23;;;6.40;99.90;;;;;;5053349;28;20591;-49
2021/03/17 03:38:51;;;;;;;5.60;4.67;;;6.50;99.90;;;;;;5054680;28;20296;-50
2021/03/17 03:41:17;;;;;;;6.43;4.93;;;6.40;99.90;;;;;;5052757;28;20254;-48
2021/03/17 03:43:44;;;;;;;8.33;5.83;;;6.40;99.90;;;;;;5055246;28;20203;-48
2021/03/17 03:46:21;;;;;;;7.53;5.50;;;6.40;99.90;;;;;;5047124;28;20219;-48
2021/03/17 03:48:48;;;;;;;7.80;6.07;;;6.30;99.90;;;;;;5057861;28;20331;-49
2021/03/17 03:51:17;;;;;;;8.90;6.47;;;6.40;99.90;;;;;;5054705;28;20281;-48
2021/03/17 03:54:18;;;;;;;9.50;6.63;;;6.30;99.90;;;;;;5056839;28;20732;-48
2021/03/17 03:56:53;;;;;;;9.47;7.13;;;6.30;99.90;;;;;;5030436;28;20652;-50
2021/03/17 03:59:28;;;;;;;9.90;7.43;;;6.30;99.90;;;;;;5056336;28;21060;-49
2021/03/17 04:01:58;;;;;;;12.00;7.97;;;6.20;99.90;;;;;;5055577;28;20202;-50
2021/03/17 04:04:31;;;;;;;10.07;7.30;;;6.20;99.90;;;;;;5056659;28;20203;-49
2021/03/17 04:07:01;;;;;;;10.87;7.53;;;6.30;99.90;;;;;;5059086;28;20199;-49
2021/03/17 04:09:41;;;;;;;11.60;7.87;;;6.20;99.90;;;;;;5055051;28;20912;-48
2021/03/17 04:12:10;;;;;;;9.93;7.27;;;6.30;99.90;;;;;;5056431;28;20203;-49
2021/03/17 04:14:36;;;;;;;8.40;6.83;;;6.20;99.90;;;;;;5057995;28;20195;-50
2021/03/17 04:17:09;;;;;;;10.87;7.27;;;6.20;99.90;;;;;;5056152;28;20222;-49
2021/03/17 04:19:39;;;;;;;9.63;7.10;;;6.30;99.90;;;;;;5055681;28;20222;-49
2021/03/17 04:22:06;;;;;;;10.93;7.33;;;6.30;99.90;;;;;;5058284;28;20235;-48
2021/03/17 04:24:34;;;;;;;9.07;6.23;;;6.30;99.90;;;;;;5055791;28;20207;-48
2021/03/17 04:27:02;;;;;;;8.53;5.97;;;6.30;99.90;;;;;;5058351;28;20500;-47
2021/03/17 04:29:31;;;;;;;9.90;5.93;;;6.20;99.90;;;;;;5057646;28;20651;-49
2021/03/17 04:31:58;;;;;;;6.27;5.30;;;6.30;99.90;;;;;;5057076;28;20317;-49
2021/03/17 04:34:26;;;;;;;8.97;5.70;;;6.30;99.90;;;;;;5043398;28;20823;-48
2021/03/17 04:36:54;;;;;;;8.60;5.43;;;6.30;99.90;;;;;;5056885;28;20211;-49
2021/03/17 04:39:22;;;;;;;6.77;5.60;;;6.30;99.90;;;;;;5054800;28;20246;-48
2021/03/17 04:41:49;;;;;;;6.53;4.77;;;6.30;99.90;;;;;;5056195;28;20232;-49
2021/03/17 04:44:17;;;;;;;7.70;5.80;;;6.30;99.90;;;;;;5056244;28;20298;-49
2021/03/17 04:46:44;;;;;;;7.77;5.67;;;6.30;99.90;;;;;;5057737;28;20313;-49
2021/03/17 04:49:11;;;;;;;8.17;5.83;;;6.30;99.90;;;;;;5056275;28;20717;-49
2021/03/17 04:51:43;;;;;;;7.80;5.93;;;6.40;99.90;;;;;;5054617;28;20297;-49
2021/03/17 04:54:10;;;;;;;6.63;5.07;;;6.30;99.90;;;;;;5055994;28;20217;-49
2021/03/17 04:56:39;;;;;;;9.47;6.30;;;6.40;99.90;;;;;;5059143;28;20289;-48
2021/03/17 04:59:06;;;;;;;10.80;5.93;;;6.50;99.90;;;;;;5055367;28;20239;-49
2021/03/17 05:01:35;;;;;;;7.77;6.07;;;6.40;99.90;;;;;;5056353;28;20203;-48
2021/03/17 05:04:03;;;;;;;10.33;6.33;;;6.40;99.90;;;;;;5054232;28;20291;-49
2021/03/17 05:06:31;;;;;;;8.93;6.17;;;6.30;99.90;;;;;;5054904;28;20299;-48
2021/03/17 05:08:59;;;;;;;9.53;6.33;;;6.40;99.90;;;;;;5054370;28;20227;-49
2021/03/17 05:11:27;;;;;;;8.73;6.00;;;6.40;99.90;;;;;;5052340;28;21776;-48
2021/03/17 05:13:53;;;;;;;7.67;5.83;;;6.40;99.90;;;;;;5057457;28;21567;-48
2021/03/17 05:16:20;;;;;;;9.67;6.17;;;6.40;99.90;;;;;;5057357;28;20273;-49
2021/03/17 05:18:48;;;;;;;7.63;5.77;;;6.40;99.90;;;;;;5055523;28;20226;-50
2021/03/17 05:21:16;;;;;;;8.43;5.73;;;6.40;99.90;;;;;;5055069;28;20729;-49
2021/03/17 05:23:42;;;;;;;6.33;4.57;;;6.30;99.90;;;;;;5055229;28;20260;-48
2021/03/17 05:26:10;;;;;;;7.77;5.03;;;6.50;99.90;;;;;;5055121;28;20200;-49
2021/03/17 05:28:39;;;;;;;7.67;5.07;;;6.40;99.90;;;;;;5056622;28;20204;-49
2021/03/17 05:31:07;;;;;;;7.00;5.23;;;6.50;99.90;;;;;;5055557;28;20203;-49
2021/03/17 05:33:35;;;;;;;6.37;4.77;;;6.50;99.90;;;;;;5052878;28;20204;-49
2021/03/17 05:36:02;;;;;;;7.23;5.23;;;6.30;99.90;;;;;;5057964;28;20220;-49
2021/03/17 05:38:29;;;;;;;6.23;4.90;;;6.20;99.90;;;;;;5056152;28;20251;-49
2021/03/17 05:40:56;;;;;;;7.53;5.03;;;6.30;99.90;;;;;;5057667;28;20521;-49
2021/03/17 05:43:23;;;;;;;5.67;5.07;;;6.40;99.90;;;;;;5055961;28;20211;-50
2021/03/17 05:45:51;;;;;;;5.57;4.43;;;6.50;99.90;;;;;;5058034;28;20231;-48
2021/03/17 05:48:19;;;;;;;5.63;4.37;;;6.50;99.90;;;;;;5057028;28;20207;-48
2021/03/17 05:50:46;;;;;;;5.70;4.30;;;6.40;99.90;;;;;;5055621;28;20199;-49
2021/03/17 05:53:13;;;;;;;7.13;5.00;;;6.50;99.90;;;;;;5053922;28;20477;-49
2021/03/17 05:55:39;;;;;;;5.80;4.30;;;6.40;99.90;;;;;;5055850;28;20199;-49
2021/03/17 05:58:05;;;;;;;7.40;4.27;;;6.20;99.90;;;;;;5053918;28;20341;-49
2021/03/17 06:00:32;;;;;;;5.83;4.37;;;6.20;99.90;;;;;;5038474;28;20634;-49
2021/03/17 06:03:02;;;;;;;6.77;3.73;;;6.30;99.90;;;;;;5055409;28;20196;-49
2021/03/17 06:05:29;;;;;;;4.87;3.80;;;6.30;99.90;;;;;;5056164;28;20502;-49
2021/03/17 06:08:05;;;;;;;6.07;4.00;;;6.20;99.90;;;;;;5038483;28;20285;-48
2021/03/17 06:10:35;;;;;;;5.73;4.03;;;6.20;99.90;;;;;;5031216;28;20211;-49
2021/03/17 06:13:12;;;;;;;7.00;4.20;;;6.30;99.90;;;;;;5041941;28;20207;-48
2021/03/17 06:15:41;;;;;;;5.07;4.00;;;6.40;99.90;;;;;;5055785;28;20234;-48
2021/03/17 06:18:36;;;;;;;5.43;4.07;;;6.30;99.90;;;;;;5054084;28;20758;-48
2021/03/17 06:21:04;;;;;;;5.10;4.40;;;6.40;99.90;;;;;;5021569;28;20242;-48
2021/03/17 06:23:31;;;;;;;7.03;4.80;;;6.40;99.90;;;;;;5052343;28;20980;-48
2021/03/17 06:25:58;;;;;;;5.53;3.80;;;6.30;99.90;;;;;;5053510;28;20203;-50
2021/03/17 06:28:27;;;;;;;5.37;4.20;;;6.20;99.90;;;;;;5055059;28;20200;-48
2021/03/17 06:30:57;;;;;;;6.10;4.40;;;6.20;99.90;;;;;;5039164;28;20297;-48
2021/03/17 06:33:24;;;;;;;5.97;4.17;;;6.10;99.90;;;;;;5039097;28;20247;-49
2021/03/17 06:36:12;;;;;;;6.30;4.90;;;6.20;99.90;;;;;;5052422;28;20233;-48
2021/03/17 06:38:39;;;;;;;5.00;3.97;;;6.40;99.90;;;;;;5046210;28;20630;-49
2021/03/17 06:41:05;;;;;;;4.80;3.80;;;6.40;99.90;;;;;;5052146;28;20296;-49
2021/03/17 06:43:43;;;;;;;4.07;3.63;;;6.30;99.90;;;;;;5041879;28;20205;-49
2021/03/17 06:46:19;;;;;;;4.97;4.27;;;6.20;99.90;;;;;;5037754;28;20219;-49
2021/03/17 06:48:57;;;;;;;4.83;3.80;;;6.20;99.90;;;;;;5054673;28;20205;-50
2021/03/17 06:51:24;;;;;;;4.60;3.00;;;6.40;99.90;;;;;;5051545;28;20444;-50
2021/03/17 06:53:59;;;;;;;9.67;4.17;;;6.40;99.90;;;;;;5053212;28;20651;-50
2021/03/17 06:56:36;;;;;;;7.77;3.10;;;6.70;99.90;;;;;;5052803;28;20231;-48
2021/03/17 06:59:04;;;;;;;3.63;2.80;;;6.70;99.90;;;;;;5057616;28;20288;-48
2021/03/17 07:01:32;;;;;;;3.50;3.00;;;6.60;99.90;;;;;;5051848;28;20223;-49
2021/03/17 07:04:00;;;;;;;3.07;2.60;;;6.50;99.90;;;;;;5054288;28;20205;-50
2021/03/17 07:06:27;;;;;;;3.27;2.73;;;6.50;99.90;;;;;;5053543;28;20554;-49
2021/03/17 07:08:54;;;;;;;3.20;2.43;;;6.60;99.90;;;;;;5053131;28;20215;-49
2021/03/17 07:11:30;;;;;;;3.73;2.20;;;6.60;99.90;;;;;;5036094;28;20210;-49
2021/03/17 07:14:03;;;;;;;3.07;2.33;;;6.50;99.90;;;;;;5055033;28;20636;-49
2021/03/17 07:16:40;;;;;;;1.63;1.53;;;6.50;99.90;;;;;;5052800;28;20219;-49
2021/03/17 07:19:35;;;;;;;2.10;1.80;;;6.60;99.90;;;;;;5053915;28;20295;-50
2021/03/17 07:22:13;;;;;;;3.20;2.23;;;6.50;99.90;;;;;;5054037;28;20261;-49
2021/03/17 07:24:48;;;;;;;2.67;1.60;;;6.50;99.90;;;;;;5053147;28;20198;-50
2021/03/17 07:27:22;;;;;;;1.63;1.43;;;6.60;99.90;;;;;;5051491;28;20631;-50
2021/03/17 07:29:57;;;;;;;2.67;1.80;;;6.50;99.90;;;;;;5054827;28;20200;-48
2021/03/17 07:32:54;;;;;;;1.67;1.30;;;6.40;99.90;;;;;;5054745;28;20648;-47
2021/03/17 07:35:28;;;;;;;1.60;1.50;;;6.40;99.90;;;;;;5050923;28;20607;-47
2021/03/17 07:38:03;;;;;;;1.87;1.60;;;6.30;99.90;;;;;;5056212;28;20213;-47
2021/03/17 07:40:30;;;;;;;2.40;1.40;;;6.30;99.90;;;;;;5053019;28;20251;-49
2021/03/17 07:43:00;;;;;;;2.80;1.63;;;6.40;99.90;;;;;;5038134;28;20216;-48
2021/03/17 07:45:28;;;;;;;4.57;1.73;;;6.40;99.90;;;;;;5055349;28;20197;-48
2021/03/17 07:47:55;;;;;;;1.43;1.13;;;6.30;99.90;;;;;;5054326;28;20291;-50
2021/03/17 07:50:22;;;;;;;1.87;1.10;;;6.40;99.90;;;;;;5054379;28;20568;-48
2021/03/17 07:52:51;;;;;;;2.33;1.70;;;6.20;99.90;;;;;;5056802;28;20207;-48
2021/03/17 07:55:20;;;;;;;1.20;1.10;;;6.50;99.90;;;;;;5051153;28;20296;-49
2021/03/17 07:57:47;;;;;;;2.23;1.27;;;6.80;99.90;;;;;;5049095;28;20564;-50
2021/03/17 08:00:14;;;;;;;1.90;1.23;;;6.60;99.90;;;;;;5052959;28;20271;-49
2021/03/17 08:02:42;;;;;;;1.77;1.47;;;6.60;99.90;;;;;;5058605;28;20210;-49
2021/03/17 08:05:10;;;;;;;3.60;1.40;;;6.60;99.90;;;;;;5056013;28;20203;-49
2021/03/17 08:07:37;;;;;;;2.97;1.50;;;6.60;99.90;;;;;;5054406;28;20206;-49
2021/03/17 08:10:04;;;;;;;3.20;1.63;;;6.60;99.90;;;;;;5054278;28;20202;-49
2021/03/17 08:12:31;;;;;;;3.33;1.50;;;6.70;99.90;;;;;;5035448;28;20629;-49
2021/03/17 08:14:58;;;;;;;2.90;1.20;;;6.90;99.90;;;;;;5037790;28;20256;-48
2021/03/17 08:17:33;;;;;;;2.57;1.50;;;6.90;99.90;;;;;;5051845;28;20272;-50
2021/03/17 08:20:17;;;;;;;2.70;1.40;;;6.90;99.90;;;;;;5053331;28;20218;-50
2021/03/17 08:22:44;;;;;;;1.70;1.03;;;6.70;99.90;;;;;;5041794;28;20201;-50
2021/03/17 08:25:12;;;;;;;2.30;1.20;;;6.70;99.90;;;;;;5053011;28;20204;-49
2021/03/17 08:27:38;;;;;;;1.30;1.00;;;6.80;99.90;;;;;;5051401;28;20205;-49
2021/03/17 08:30:10;;;;;;;2.33;1.50;;;6.60;99.90;;;;;;5057417;28;20316;-49
2021/03/17 08:33:06;;;;;;;1.47;1.00;;;6.70;99.90;;;;;;5059777;28;20602;-48
2021/03/17 08:36:11;;;;;;;2.53;0.83;;;6.80;99.90;;;;;;5039753;28;20213;-49
2021/03/17 08:38:57;;;;;;;2.70;0.60;;;6.60;99.90;;;;;;5058022;28;20219;-49
2021/03/17 08:41:42;;;;;;;1.07;0.70;;;6.50;99.90;;;;;;5058801;28;20201;-50
2021/03/17 08:44:12;;;;;;;3.23;0.60;;;6.60;99.90;;;;;;5060055;28;20226;-49
2021/03/17 08:46:39;;;;;;;1.10;0.73;;;6.60;42.50;;;;;;5060877;28;20206;-48
2021/03/17 08:49:07;;;;;;;3.13;0.70;;;6.50;48.40;;;;;;5059109;28;20193;-48
2021/03/17 08:51:54;;;;;;;1.83;0.77;;;6.70;1.00;;;;;;5061416;28;20666;-49
2021/03/17 08:54:32;;;;;;;4.83;0.70;;;6.80;1.00;;;;;;5046811;28;20287;-51
2021/03/17 08:57:03;;;;;;;0.73;0.60;;;7.00;46.90;;;;;;5044459;28;20213;-49
2021/03/17 08:59:43;;;;;;;1.57;0.87;;;7.20;1.00;;;;;;5058141;28;20218;-49
2021/03/17 09:02:36;;;;;;;0.50;0.33;;;7.00;1.00;;;;;;5058056;28;20790;-48
2021/03/17 09:05:20;;;;;;;2.00;0.50;;;6.70;40.60;;;;;;5052269;28;20200;-48
2021/03/17 09:08:07;;;;;;;1.70;0.60;;;6.70;35.90;;;;;;5060001;28;20558;-51
2021/03/17 09:10:44;;;;;;;1.80;0.70;;;6.60;65.30;;;;;;5058491;28;20194;-50
2021/03/17 09:13:11;;;;;;;0.40;0.40;;;6.70;99.90;;;;;;5057170;28;20226;-50
2021/03/17 09:15:47;;;;;;;0.53;0.50;;;6.80;99.90;;;;;;5057317;28;20201;-51
2021/03/17 09:18:19;;;;;;;3.50;0.77;;;6.90;83.40;;;;;;5059018;28;20644;-51
2021/03/17 09:20:58;;;;;;;1.83;0.90;;;7.20;71.10;;;;;;5059359;28;20206;-48
2021/03/17 09:23:36;;;;;;;2.30;0.70;;;7.30;10.20;;;;;;5058094;28;20192;-48
2021/03/17 09:26:03;;;;;;;1.30;0.80;;;7.20;9.50;;;;;;5058606;28;20208;-49
2021/03/17 09:28:32;;;;;;;2.70;0.80;;;7.20;25.40;;;;;;5056799;28;20211;-49
2021/03/17 09:31:04;;;;;;;1.10;0.43;;;7.20;1.00;;;;;;5056784;28;20206;-50
2021/03/17 09:33:37;;;;;;;1.90;0.50;;;7.00;1.00;;;;;;5059258;28;20280;-49
2021/03/17 09:36:06;;;;;;;3.17;0.70;;;7.00;1.00;;;;;;5048129;28;20199;-49
2021/03/17 09:38:36;;;;;;;3.60;0.70;;;7.00;1.00;;;;;;5059648;28;20235;-50
2021/03/17 09:41:09;;;;;;;5.00;0.90;;;7.10;1.00;;;;;;5036506;28;20205;-50
2021/03/17 09:43:57;;;;;;;1.57;0.50;;;7.20;1.00;;;;;;5057448;28;20202;-49
2021/03/17 09:46:27;;;;;;;2.20;0.60;;;7.00;1.00;;;;;;5041800;28;20565;-50
2021/03/17 09:48:57;;;;;;;1.63;0.70;;;7.10;1.00;;;;;;5055337;28;20195;-49
2021/03/17 09:51:30;;;;;;;0.80;0.67;;;7.10;1.00;;;;;;5056909;28;20617;-50
2021/03/17 09:54:02;;;;;;;1.20;0.63;;;7.10;1.00;;;;;;5057458;28;20807;-48
2021/03/17 09:57:18;;;;;;;1.40;0.90;;;7.20;1.00;;;;;;5045584;28;20207;-49
2021/03/17 09:59:46;;;;;;;5.03;0.53;;;7.40;1.00;;;;;;5034731;28;20228;-48
2021/03/17 10:02:22;;;;;;;1.60;0.53;;;7.40;1.00;;;;;;5053047;28;20215;-50
2021/03/17 10:04:51;;;;;;;1.13;0.67;;;7.30;1.00;;;;;;5038716;28;20206;-48
2021/03/17 10:07:23;;;;;;;1.40;0.63;;;7.30;1.00;;;;;;5036009;28;20269;-49
2021/03/17 10:09:52;;;;;;;1.03;0.83;;;7.20;1.00;;;;;;5036423;28;20274;-49
2021/03/17 10:12:19;;;;;;;1.83;0.57;;;7.20;1.00;;;;;;5038179;28;20206;-48
2021/03/17 10:15:09;;;;;;;3.10;0.50;;;7.30;1.00;;;;;;5037142;28;20199;-48
2021/03/17 10:17:36;;;;;;;1.37;0.60;;;7.50;99.90;;;;;;5037180;28;20674;-48
2021/03/17 10:20:11;;;;;;;1.30;0.40;;;7.30;80.20;;;;;;5037373;28;20633;-49
2021/03/17 10:22:37;;;;;;;3.50;0.77;;;7.30;1.00;;;;;;5034724;28;20200;-51
2021/03/17 10:25:16;;;;;;;1.63;0.60;;;7.60;1.00;;;;;;5035746;28;20200;-49
2021/03/17 10:27:45;;;;;;;1.37;0.73;;;7.90;1.00;;;;;;5038676;28;20202;-49
2021/03/17 10:30:14;;;;;;;1.13;0.60;;;7.90;99.90;;;;;;5038463;28;20263;-49
2021/03/17 10:32:42;;;;;;;5.23;1.20;;;7.60;99.90;;;;;;5035285;28;20274;-50
2021/03/17 10:35:17;;;;;;;1.90;0.70;;;7.70;1.00;;;;;;5038616;28;20216;-48
2021/03/17 10:37:48;;;;;;;1.40;0.70;;;7.90;1.00;;;;;;5036496;28;20219;-49
2021/03/17 10:40:18;;;;;;;0.93;0.63;;;7.90;99.90;;;;;;5033599;28;20223;-49
2021/03/17 10:42:56;;;;;;;1.43;0.63;;;8.00;1.00;;;;;;5037174;28;20223;-50
2021/03/17 10:45:30;;;;;;;2.97;0.80;;;8.00;1.00;;;;;;5037629;28;20218;-49
2021/03/17 10:47:56;;;;;;;1.57;0.60;;;8.10;99.90;;;;;;5039562;28;20215;-50
2021/03/17 10:50:35;;;;;;;1.17;0.70;;;8.00;99.90;;;;;;5052822;28;20212;-50
2021/03/17 10:53:24;;;;;;;2.70;0.90;;;7.80;99.90;;;;;;5035287;28;20223;-50
2021/03/17 10:55:52;;;;;;;5.57;1.00;;;7.70;1.00;;;;;;5032496;28;20197;-49
2021/03/17 10:58:28;;;;;;;1.33;0.53;;;7.90;1.00;;;;;;5039151;28;20232;-49
2021/03/17 11:00:59;;;;;;;1.40;0.47;;;7.70;1.00;;;;;;5015707;28;20278;-50
2021/03/17 11:03:40;;;;;;;3.87;0.63;;;7.40;1.00;;;;;;5012774;28;20751;-50
2021/03/17 11:06:12;;;;;;;1.03;0.50;;;7.30;1.00;;;;;;5016656;28;20212;-49
2021/03/17 11:08:39;;;;;;;2.90;1.80;;;7.30;1.00;;;;;;5016854;28;20856;-51
2021/03/17 11:11:10;;;;;;;4.20;1.10;;;7.40;1.00;;;;;;5015478;28;20785;-51
2021/03/17 11:13:45;;;;;;;2.23;0.50;;;7.40;1.00;;;;;;5013417;28;20208;-48
2021/03/17 11:16:24;;;;;;;4.37;0.77;;;7.40;1.00;;;;;;5014855;28;20197;-51
2021/03/17 11:18:52;;;;;;;4.33;0.70;;;7.50;1.00;;;;;;5014123;28;20272;-49
2021/03/17 11:21:26;;;;;;;3.90;0.97;;;7.70;1.00;;;;;;5013595;28;20201;-49
2021/03/17 11:23:54;;;;;;;1.87;0.80;;;8.00;1.00;;;;;;5016104;28;20256;-50
2021/03/17 11:26:27;;;;;;;2.70;0.73;;;8.10;1.00;;;;;;5017086;28;20198;-50
2021/03/17 11:28:56;;;;;;;6.43;0.90;;;8.00;1.00;;;;;;5016473;28;20204;-48
2021/03/17 11:31:31;;;;;;;0.97;0.70;;;8.10;1.00;;;;;;5015868;28;20206;-49
2021/03/17 11:33:57;;;;;;;2.07;0.70;;;8.20;1.00;;;;;;5015926;28;20283;-50
2021/03/17 11:36:25;;;;;;;6.03;1.33;;;8.10;1.00;;;;;;5015733;28;20280;-50
2021/03/17 11:38:53;;;;;;;1.60;0.60;;;7.90;1.00;;;;;;5013625;28;20688;-49
2021/03/17 11:41:20;;;;;;;1.43;0.60;;;8.00;99.90;;;;;;5015582;28;21098;-49
2021/03/17 11:43:47;;;;;;;2.53;1.00;;;7.90;1.00;;;;;;5014726;28;20223;-49
2021/03/17 11:46:13;;;;;;;2.73;0.70;;;7.90;1.00;;;;;;5016587;28;20255;-49
2021/03/17 11:48:44;;;;;;;1.60;0.63;;;8.20;1.00;;;;;;5030095;28;20558;-49
2021/03/17 11:51:13;;;;;;;1.30;0.63;;;8.30;1.00;;;;;;5014652;28;20206;-49
2021/03/17 11:53:39;;;;;;;2.40;0.50;;;8.60;1.00;;;;;;5016346;28;20202;-49
2021/03/17 11:56:06;;;;;;;1.30;0.60;;;8.60;1.00;;;;;;5023107;28;20605;-50
2021/03/17 11:58:35;;;;;;;3.40;0.63;;;8.40;99.90;;;;;;5038480;28;21016;-50
2021/03/17 12:01:02;;;;;;;1.77;0.60;;;8.30;1.00;;;;;;5055062;28;20198;-50
2021/03/17 12:03:36;;;;;;;4.87;0.97;;;8.30;1.00;;;;;;5041962;28;20199;-49
2021/03/17 12:06:04;;;;;;;2.07;0.90;;;8.50;99.90;;;;;;5059295;28;20710;-50
2021/03/17 12:08:30;;;;;;;0.87;0.77;;;8.50;35.80;;;;;;5060734;28;20195;-50
2021/03/17 12:11:14;;;;;;;1.30;0.87;;;8.50;99.90;;;;;;5057948;28;20254;-50
2021/03/17 12:13:40;;;;;;;2.70;0.70;;;8.40;1.00;;;;;;5061795;28;20599;-50
2021/03/17 12:16:07;;;;;;;0.90;0.60;;;8.70;99.90;;;;;;5059246;28;20286;-50
2021/03/17 12:18:33;;;;;;;1.13;0.50;;;8.60;99.90;;;;;;5060046;28;20232;-50
2021/03/17 12:21:00;;;;;;;2.20;0.77;;;8.40;1.00;;;;;;5058610;28;20624;-50
2021/03/17 12:23:26;;;;;;;1.00;0.60;;;8.30;99.90;;;;;;5061013;28;20204;-50
2021/03/17 12:25:52;;;;;;;1.13;0.60;;;8.00;1.00;;;;;;5059128;28;20656;-50
2021/03/17 12:28:19;;;;;;;0.83;0.60;;;7.90;1.00;;;;;;5043120;28;20208;-50
2021/03/17 12:30:45;;;;;;;2.67;0.60;;;8.00;1.00;;;;;;5041938;28;20219;-49
2021/03/17 12:33:12;;;;;;;1.17;0.60;;;8.00;1.00;;;;;;5049561;28;20212;-49
2021/03/17 12:35:38;;;;;;;2.77;0.60;;;8.10;1.00;;;;;;5040761;28;20192;-50
2021/03/17 12:38:05;;;;;;;1.30;0.57;;;8.10;1.00;;;;;;5059798;28;20590;-49
2021/03/17 12:40:31;;;;;;;5.07;0.97;;;8.10;1.00;;;;;;5058266;28;20209;-51
2021/03/17 12:42:59;;;;;;;5.13;1.37;;;8.50;1.00;;;;;;5037695;28;20205;-50
2021/03/17 12:45:41;;;;;;;1.43;0.70;;;8.50;1.00;;;;;;5044135;28;20547;-50
2021/03/17 12:48:07;;;;;;;1.77;0.63;;;8.40;1.00;;;;;;5060438;28;20209;-49
2021/03/17 12:50:34;;;;;;;2.47;0.50;;;8.50;99.90;;;;;;5059587;28;20215;-50
2021/03/17 12:53:00;;;;;;;1.90;0.40;;;8.30;99.90;;;;;;5058304;28;20308;-50
2021/03/17 12:55:27;;;;;;;1.53;0.70;;;8.40;78.00;;;;;;5057989;28;20311;-49
2021/03/17 12:57:53;;;;;;;3.40;0.57;;;8.30;1.00;;;;;;5056472;28;20243;-48
2021/03/17 13:00:23;;;;;;;3.30;0.50;;;8.40;1.00;;;;;;5056404;28;20670;-51
2021/03/17 13:02:50;;;;;;;0.73;0.50;;;8.50;1.00;;;;;;5051075;28;20201;-51
2021/03/17 13:05:17;;;;;;;1.03;0.53;;;8.40;1.00;;;;;;5053295;28;20519;-51
2021/03/17 13:07:46;;;;;;;1.27;0.50;;;8.40;99.90;;;;;;5040715;28;20639;-50
2021/03/17 13:10:17;;;;;;;2.30;0.77;;;8.20;1.00;;;;;;5054574;28;20206;-56
2021/03/17 13:12:45;;;;;;;3.80;0.60;;;8.10;1.00;;;;;;5055053;28;22148;-50
2021/03/17 13:15:16;;;;;;;5.17;0.70;;;8.10;1.00;;;;;;5057225;28;20208;-50
2021/03/17 13:17:43;;;;;;;0.73;0.50;;;8.00;1.00;;;;;;5057282;28;20302;-48
2021/03/17 13:20:13;;;;;;;1.47;0.70;;;7.90;1.00;;;;;;5028628;28;20242;-49